createdAt,value
2023-01-28T00:01:55.163Z,-0.04
2023-01-28T00:04:22.904Z,-0.03
2023-01-28T00:06:50.833Z,-0.09
2023-01-28T00:09:22.129Z,-0.08
2023-01-28T00:11:50.033Z,-0.10
2023-01-28T00:14:26.970Z,-0.18
2023-01-28T00:16:58.597Z,-0.16
2023-01-28T00:19:32.046Z,-0.22
2023-01-28T00:22:02.882Z,-0.26
2023-01-28T00:24:30.711Z,-0.20
2023-01-28T00:27:05.373Z,-0.20
2023-01-28T00:29:33.218Z,-0.22
2023-01-28T00:32:10.400Z,-0.27
2023-01-28T00:34:38.291Z,-0.22
2023-01-28T00:37:06.406Z,-0.26
2023-01-28T00:39:34.365Z,-0.30
2023-01-28T00:42:02.286Z,-0.31
2023-01-28T00:44:30.042Z,-0.25
2023-01-28T00:46:57.924Z,-0.32
2023-01-28T00:49:27.091Z,-0.34
2023-01-28T00:51:54.905Z,-0.38
2023-01-28T00:54:22.691Z,-0.43
2023-01-28T00:56:50.368Z,-0.42
2023-01-28T00:59:18.104Z,-0.51
2023-01-28T01:01:46.296Z,-0.49
2023-01-28T01:04:14.163Z,-0.45
2023-01-28T01:06:43.243Z,-0.66
2023-01-28T01:09:12.845Z,-0.57
2023-01-28T01:11:40.582Z,-0.54
2023-01-28T01:14:08.331Z,-0.47
2023-01-28T01:16:38.697Z,-0.47
2023-01-28T01:19:07.365Z,-0.58
2023-01-28T01:21:35.058Z,-0.58
2023-01-28T01:24:04.412Z,-0.59
2023-01-28T01:26:32.236Z,-0.46
2023-01-28T01:28:59.994Z,-0.40
2023-01-28T01:31:27.897Z,-0.45
2023-01-28T01:33:55.695Z,-0.39
2023-01-28T01:36:23.671Z,-0.34
2023-01-28T01:38:55.186Z,-0.31
2023-01-28T01:41:30.333Z,-0.26
2023-01-28T01:44:00.423Z,-0.28
2023-01-28T01:46:34.919Z,-0.15
2023-01-28T01:49:12.844Z,-0.14
2023-01-28T01:51:41.347Z,-0.09
2023-01-28T01:54:09.538Z,-0.03
2023-01-28T01:56:41.415Z,-0.06
2023-01-28T01:59:13.918Z,-0.01
2023-01-28T02:01:42.722Z,-0.05
2023-01-28T02:04:14.842Z,0.00
2023-01-28T02:06:43.428Z,0.03
2023-01-28T02:09:24.993Z,-0.04
2023-01-28T02:11:56.548Z,0.01
2023-01-28T02:14:31.490Z,0.12
2023-01-28T02:17:00.029Z,-0.02
2023-01-28T02:19:49.228Z,-0.03
2023-01-28T02:22:31.231Z,0.05
2023-01-28T02:25:41.588Z,0.12
2023-01-28T02:28:20.869Z,0.13
2023-01-28T02:30:54.171Z,0.15
2023-01-28T02:33:29.755Z,0.20
2023-01-28T02:35:57.577Z,0.29
2023-01-28T02:38:30.282Z,0.36
2023-01-28T02:41:03.124Z,0.37
2023-01-28T02:43:34.683Z,0.31
2023-01-28T02:46:30.692Z,0.27
2023-01-28T02:48:59.142Z,0.39
2023-01-28T02:51:38.773Z,0.35
2023-01-28T02:54:13.714Z,0.39
2023-01-28T02:56:50.029Z,0.40
2023-01-28T02:59:36.678Z,0.36
2023-01-28T03:02:13.339Z,0.44
2023-01-28T03:04:48.617Z,0.40
2023-01-28T03:07:18.018Z,0.32
2023-01-28T03:09:48.075Z,0.36
2023-01-28T03:12:39.123Z,0.49
2023-01-28T03:15:31.798Z,0.42
2023-01-28T03:18:21.765Z,0.26
2023-01-28T03:21:13.259Z,0.47
2023-01-28T03:24:06.442Z,0.47
2023-01-28T03:26:57.615Z,0.52
2023-01-28T03:29:45.091Z,0.49
2023-01-28T03:32:32.023Z,0.42
2023-01-28T03:35:17.480Z,0.33
2023-01-28T03:37:45.388Z,0.38
2023-01-28T03:40:14.160Z,0.28
2023-01-28T03:42:41.890Z,0.38
2023-01-28T03:45:10.755Z,0.45
2023-01-28T03:47:40.960Z,0.47
2023-01-28T03:50:09.779Z,0.34
2023-01-28T03:52:37.529Z,0.37
2023-01-28T03:55:13.647Z,0.29
2023-01-28T03:57:42.114Z,0.46
2023-01-28T04:00:11.551Z,0.48
2023-01-28T04:02:40.911Z,0.50
2023-01-28T04:05:12.972Z,0.49
2023-01-28T04:07:41.035Z,0.55
2023-01-28T04:10:10.041Z,0.55
2023-01-28T04:12:38.510Z,0.58
2023-01-28T04:15:16.197Z,0.55
2023-01-28T04:17:49.583Z,0.58
2023-01-28T04:20:17.948Z,0.60
2023-01-28T04:22:45.850Z,0.58
2023-01-28T04:25:14.173Z,0.52
2023-01-28T04:27:42.130Z,0.61
2023-01-28T04:30:11.023Z,0.59
2023-01-28T04:32:39.023Z,0.61
2023-01-28T04:35:08.968Z,0.62
2023-01-28T04:37:36.722Z,0.57
2023-01-28T04:40:04.818Z,0.65
2023-01-28T04:42:32.669Z,0.64
2023-01-28T04:45:00.423Z,0.63
2023-01-28T04:47:28.197Z,0.71
2023-01-28T04:49:56.263Z,0.70
2023-01-28T04:52:25.371Z,0.73
2023-01-28T04:54:53.090Z,0.78
2023-01-28T04:57:20.846Z,0.72
2023-01-28T04:59:48.646Z,0.76
2023-01-28T05:02:16.484Z,0.73
2023-01-28T05:04:44.299Z,0.66
2023-01-28T05:07:12.038Z,0.68
2023-01-28T05:09:41.132Z,0.85
2023-01-28T05:12:09.559Z,0.75
2023-01-28T05:14:37.334Z,0.73
2023-01-28T05:17:05.082Z,0.82
2023-01-28T05:19:32.911Z,0.86
2023-01-28T05:22:00.719Z,0.93
2023-01-28T05:24:28.603Z,0.95
2023-01-28T05:26:57.909Z,0.98
2023-01-28T05:29:25.720Z,0.96
2023-01-28T05:31:53.473Z,0.91
2023-01-28T05:34:21.193Z,0.85
2023-01-28T05:36:48.905Z,0.99
2023-01-28T05:39:16.647Z,0.98
2023-01-28T05:41:44.318Z,0.94
2023-01-28T05:44:13.501Z,0.94
2023-01-28T05:46:45.289Z,0.93
2023-01-28T05:49:13.636Z,0.82
2023-01-28T05:51:42.127Z,0.91
2023-01-28T05:54:10.668Z,1.01
2023-01-28T05:56:38.569Z,1.02
2023-01-28T05:59:06.487Z,1.07
2023-01-28T06:01:35.641Z,1.10
2023-01-28T06:04:03.995Z,1.05
2023-01-28T06:06:32.003Z,1.02
2023-01-28T06:08:59.794Z,1.09
2023-01-28T06:11:27.765Z,1.05
2023-01-28T06:13:55.597Z,1.06
2023-01-28T06:16:23.358Z,1.08
2023-01-28T06:18:52.772Z,1.13
2023-01-28T06:21:20.510Z,1.15
2023-01-28T06:23:48.201Z,1.19
2023-01-28T06:26:15.933Z,1.17
2023-01-28T06:28:43.797Z,1.10
2023-01-28T06:31:13.549Z,1.19
2023-01-28T06:33:41.353Z,1.14
2023-01-28T06:36:11.002Z,1.17
2023-01-28T06:38:38.804Z,1.20
2023-01-28T06:41:06.813Z,1.12
2023-01-28T06:43:34.612Z,1.14
2023-01-28T06:46:02.690Z,1.19
2023-01-28T06:48:30.761Z,1.17
2023-01-28T06:50:58.565Z,1.12
2023-01-28T06:53:27.680Z,1.04
2023-01-28T06:55:55.442Z,1.10
2023-01-28T06:58:23.334Z,1.21
2023-01-28T07:00:51.178Z,1.16
2023-01-28T07:03:19.111Z,1.19
2023-01-28T07:05:46.913Z,1.17
2023-01-28T07:08:14.745Z,1.08
2023-01-28T07:10:44.805Z,1.10
2023-01-28T07:13:12.741Z,1.11
2023-01-28T07:15:40.531Z,1.21
2023-01-28T07:18:08.347Z,1.23
2023-01-28T07:20:38.920Z,1.18
2023-01-28T07:23:06.894Z,1.24
2023-01-28T07:29:17.094Z,1.16
2023-01-28T07:31:44.984Z,1.21
2023-01-28T07:34:13.255Z,1.23
2023-01-28T07:36:40.951Z,1.10
2023-01-28T07:39:08.838Z,1.19
2023-01-28T07:41:36.595Z,1.12
2023-01-28T07:44:04.583Z,1.27
2023-01-28T07:46:33.717Z,1.21
2023-01-28T07:49:01.529Z,1.17
2023-01-28T07:51:29.387Z,1.26
2023-01-28T07:53:57.965Z,1.38
2023-01-28T07:56:29.299Z,1.40
2023-01-28T07:58:57.111Z,1.31
2023-01-28T08:01:24.939Z,1.35
2023-01-28T08:03:54.391Z,1.36
2023-01-28T08:06:22.168Z,1.38
2023-01-28T08:08:49.993Z,1.40
2023-01-28T08:11:17.796Z,1.50
2023-01-28T08:13:45.669Z,1.52
2023-01-28T08:16:13.500Z,1.51
2023-01-28T08:18:41.281Z,1.47
2023-01-28T08:21:10.427Z,1.41
2023-01-28T08:23:38.327Z,1.33
2023-01-28T08:26:06.246Z,1.39
2023-01-28T08:28:34.082Z,1.52
2023-01-28T08:31:02.586Z,1.55
2023-01-28T08:33:30.593Z,1.55
2023-01-28T08:35:58.455Z,1.73
2023-01-28T08:38:27.565Z,1.62
2023-01-28T08:40:57.974Z,1.68
2023-01-28T08:43:25.836Z,1.80
2023-01-28T08:45:53.643Z,1.59
2023-01-28T08:48:21.761Z,1.70
2023-01-28T08:50:50.790Z,1.84
2023-01-28T08:53:20.549Z,1.82
2023-01-28T08:55:49.653Z,1.73
2023-01-28T08:58:19.369Z,1.82
2023-01-28T09:00:48.397Z,1.82
2023-01-28T09:03:16.601Z,1.72
2023-01-28T09:05:44.709Z,1.84
2023-01-28T09:08:14.640Z,1.85
2023-01-28T09:10:43.010Z,1.97
2023-01-28T09:13:15.192Z,1.88
2023-01-28T09:15:43.889Z,1.84
2023-01-28T09:18:11.853Z,2.01
2023-01-28T09:20:40.036Z,2.08
2023-01-28T09:23:08.344Z,2.18
2023-01-28T09:25:36.290Z,1.97
2023-01-28T09:28:05.420Z,2.03
2023-01-28T09:30:37.291Z,2.04
2023-01-28T09:33:05.487Z,2.12
2023-01-28T09:35:34.493Z,2.13
2023-01-28T09:38:02.243Z,2.16
2023-01-28T09:40:36.753Z,2.29
2023-01-28T09:43:24.277Z,2.18
2023-01-28T09:45:56.672Z,2.27
2023-01-28T09:48:30.760Z,2.40
2023-01-28T09:50:58.861Z,2.42
2023-01-28T09:53:32.167Z,2.21
2023-01-28T09:56:05.232Z,2.16
2023-01-28T09:58:33.215Z,2.06
2023-01-28T10:01:17.578Z,2.03
2023-01-28T10:03:56.010Z,2.28
2023-01-28T10:06:29.527Z,2.20
2023-01-28T10:09:24.516Z,2.28
2023-01-28T10:12:05.895Z,2.25
2023-01-28T10:14:47.259Z,2.28
2023-01-28T10:17:23.620Z,2.28
2023-01-28T10:19:54.971Z,2.20
2023-01-28T10:22:27.931Z,2.12
2023-01-28T10:25:01.803Z,2.03
2023-01-28T10:27:32.315Z,1.96
2023-01-28T10:30:01.676Z,2.18
2023-01-28T10:32:34.076Z,2.33
2023-01-28T10:35:03.485Z,2.42
2023-01-28T10:37:35.684Z,2.41
2023-01-28T10:40:04.065Z,2.29
2023-01-28T10:42:33.650Z,2.15
2023-01-28T10:45:04.252Z,2.36
2023-01-28T10:47:39.220Z,2.19
2023-01-28T10:50:16.599Z,2.44
2023-01-28T10:52:54.497Z,2.36
2023-01-28T10:55:23.299Z,2.39
2023-01-28T10:57:51.774Z,2.35
2023-01-28T11:00:27.252Z,2.33
2023-01-28T11:02:56.674Z,2.43
2023-01-28T11:05:27.350Z,2.50
2023-01-28T11:08:05.690Z,2.53
2023-01-28T11:10:35.926Z,2.41
2023-01-28T11:13:05.878Z,2.39
2023-01-28T11:15:34.932Z,2.26
2023-01-28T11:18:08.813Z,2.25
2023-01-28T11:20:42.253Z,2.28
2023-01-28T11:23:20.812Z,2.27
2023-01-28T11:25:48.552Z,2.31
2023-01-28T11:28:19.729Z,2.38
2023-01-28T11:30:53.941Z,2.37
2023-01-28T11:33:29.741Z,2.26
2023-01-28T11:36:05.270Z,2.20
2023-01-28T11:38:33.934Z,2.23
2023-01-28T11:41:02.122Z,2.22
2023-01-28T11:43:32.066Z,2.30
2023-01-28T11:46:18.600Z,2.30
2023-01-28T11:48:58.350Z,2.36
2023-01-28T11:51:37.923Z,2.28
2023-01-28T11:54:20.793Z,2.41
2023-01-28T11:57:02.465Z,2.38
2023-01-28T11:59:54.676Z,2.47
2023-01-28T12:02:40.667Z,2.44
2023-01-28T12:05:20.694Z,2.34
2023-01-28T12:07:55.524Z,2.37
2023-01-28T12:10:30.305Z,2.38
2023-01-28T12:13:13.957Z,2.37
2023-01-28T12:16:01.564Z,2.55
2023-01-28T12:18:45.299Z,2.49
2023-01-28T12:21:22.241Z,2.55
2023-01-28T12:24:10.259Z,2.41
2023-01-28T12:26:47.217Z,2.44
2023-01-28T12:29:33.517Z,2.46
2023-01-28T12:32:22.041Z,2.60
2023-01-28T12:35:13.365Z,2.66
2023-01-28T12:37:59.240Z,2.65
2023-01-28T12:40:53.721Z,2.50
2023-01-28T12:43:42.551Z,2.34
2023-01-28T12:46:27.668Z,2.41
2023-01-28T12:49:03.742Z,2.37
2023-01-28T12:51:35.639Z,2.23
2023-01-28T12:54:19.029Z,2.28
2023-01-28T12:56:52.399Z,2.38
2023-01-28T12:59:26.238Z,2.48
2023-01-28T13:02:05.232Z,2.52
2023-01-28T13:04:40.788Z,2.37
2023-01-28T13:07:17.099Z,2.22
2023-01-28T13:09:53.932Z,2.37
2023-01-28T13:12:23.539Z,2.47
2023-01-28T13:14:54.267Z,2.44
2023-01-28T13:17:28.224Z,2.54
2023-01-28T13:19:56.669Z,2.58
2023-01-28T13:22:29.865Z,2.59
2023-01-28T13:25:13.987Z,2.62
2023-01-28T13:27:42.081Z,2.71
2023-01-28T13:30:26.760Z,2.76
2023-01-28T13:33:00.345Z,2.80
2023-01-28T13:35:39.533Z,2.73
2023-01-28T13:38:10.506Z,2.68
2023-01-28T13:40:41.638Z,2.64
2023-01-28T13:43:29.794Z,2.60
2023-01-28T13:45:59.721Z,2.64
2023-01-28T13:48:34.442Z,2.67
2023-01-28T13:51:04.708Z,2.44
2023-01-28T13:53:43.024Z,2.39
2023-01-28T13:56:21.915Z,2.39
2023-01-28T13:59:24.199Z,2.50
2023-01-28T14:02:46.045Z,2.62
2023-01-28T14:05:56.686Z,2.45
2023-01-28T14:08:54.486Z,2.53
2023-01-28T14:11:52.460Z,2.69
2023-01-28T14:14:38.354Z,2.62
2023-01-28T14:17:15.557Z,2.51
2023-01-28T14:19:45.283Z,2.61
2023-01-28T14:22:19.702Z,2.64
2023-01-28T14:24:49.233Z,2.64
2023-01-28T14:27:23.591Z,2.83
2023-01-28T14:30:05.301Z,2.73
2023-01-28T14:32:35.351Z,2.93
2023-01-28T14:35:09.362Z,2.84
2023-01-28T14:37:37.495Z,2.87
2023-01-28T14:40:09.087Z,2.90
2023-01-28T14:42:41.426Z,2.88
2023-01-28T14:45:20.627Z,2.85
2023-01-28T14:48:00.930Z,2.88
2023-01-28T14:50:38.851Z,2.79
2023-01-28T14:53:25.073Z,2.90
2023-01-28T14:56:00.050Z,2.89
2023-01-28T14:58:33.911Z,2.98
2023-01-28T15:01:02.585Z,2.84
2023-01-28T15:03:31.834Z,2.72
2023-01-28T15:06:04.803Z,2.61
2023-01-28T15:08:33.302Z,2.60
2023-01-28T15:11:02.768Z,2.58
2023-01-28T15:13:37.385Z,2.65
2023-01-28T15:16:06.733Z,2.55
2023-01-28T15:18:37.486Z,2.54
2023-01-28T15:21:05.835Z,2.50
2023-01-28T15:23:36.389Z,2.55
2023-01-28T15:26:07.326Z,2.60
2023-01-28T15:28:40.474Z,2.49
2023-01-28T15:31:08.413Z,2.49
2023-01-28T15:33:36.341Z,2.54
2023-01-28T15:36:04.497Z,2.45
2023-01-28T15:38:32.400Z,2.52
2023-01-28T15:41:03.420Z,2.53
2023-01-28T15:43:34.087Z,2.51
2023-01-28T15:46:03.743Z,2.49
2023-01-28T15:48:36.528Z,2.39
2023-01-28T15:51:07.166Z,2.39
2023-01-28T15:53:38.619Z,2.36
2023-01-28T15:56:08.709Z,2.31
2023-01-28T15:58:41.179Z,2.35
2023-01-28T16:01:19.340Z,2.40
2023-01-28T16:03:49.024Z,2.27
2023-01-28T16:06:20.517Z,2.24
2023-01-28T16:08:54.151Z,2.22
2023-01-28T16:11:24.598Z,2.16
2023-01-28T16:13:52.988Z,2.22
2023-01-28T16:16:30.584Z,2.23
2023-01-28T16:19:00.434Z,2.23
2023-01-28T16:21:30.657Z,2.22
2023-01-28T16:24:02.128Z,2.21
2023-01-28T16:26:31.971Z,2.21
2023-01-28T16:29:02.520Z,2.24
2023-01-28T16:31:34.115Z,2.24
2023-01-28T16:34:01.924Z,2.25
2023-01-28T16:36:29.632Z,2.16
2023-01-28T16:41:33.757Z,2.14
2023-01-28T16:44:05.805Z,2.21
2023-01-28T16:46:35.076Z,2.18
2023-01-28T16:49:03.579Z,2.10
2023-01-28T16:51:31.946Z,2.05
2023-01-28T16:54:00.174Z,2.00
2023-01-28T16:56:44.627Z,2.00
2023-01-28T16:59:14.779Z,1.97
2023-01-28T17:01:44.721Z,1.98
2023-01-28T17:04:13.459Z,2.02
2023-01-28T17:06:44.219Z,2.06
2023-01-28T17:09:13.417Z,2.06
2023-01-28T17:11:41.213Z,2.07
2023-01-28T17:14:09.416Z,1.94
2023-01-28T17:16:37.632Z,1.86
2023-01-28T17:19:07.291Z,1.98
2023-01-28T17:21:35.142Z,2.01
2023-01-28T17:24:03.474Z,2.02
2023-01-28T17:26:31.399Z,1.98
2023-01-28T17:28:59.271Z,2.01
2023-01-28T17:31:27.392Z,2.03
2023-01-28T17:33:56.228Z,1.99
2023-01-28T17:36:26.644Z,2.02
2023-01-28T17:38:55.108Z,2.05
2023-01-28T17:41:23.448Z,2.06
2023-01-28T17:43:52.067Z,2.03
2023-01-28T17:46:20.137Z,1.95
2023-01-28T17:48:48.028Z,1.96
2023-01-28T17:51:17.180Z,1.96
2023-01-28T17:53:48.004Z,1.92
2023-01-28T17:56:17.987Z,1.92
2023-01-28T17:58:50.358Z,1.92
2023-01-28T18:01:18.167Z,1.81
2023-01-28T18:03:46.248Z,1.78
2023-01-28T18:06:14.135Z,1.84
2023-01-28T18:08:42.028Z,1.83
2023-01-28T18:11:12.969Z,1.85
2023-01-28T18:13:42.130Z,1.85
2023-01-28T18:16:14.875Z,1.86
2023-01-28T18:18:43.032Z,1.77
2023-01-28T18:21:21.047Z,1.69
2023-01-28T18:23:49.481Z,1.62
2023-01-28T18:26:18.539Z,1.45
2023-01-28T18:28:46.738Z,1.44
2023-01-28T18:31:14.558Z,1.42
2023-01-28T18:33:42.721Z,1.36
2023-01-28T18:36:11.320Z,1.32
2023-01-28T18:38:39.165Z,1.35
2023-01-28T18:41:06.877Z,1.32
2023-01-28T18:43:36.176Z,1.28
2023-01-28T18:46:13.179Z,1.24
2023-01-28T18:48:41.288Z,1.19
2023-01-28T18:51:27.653Z,1.16
2023-01-28T18:53:59.151Z,1.19
2023-01-28T18:56:27.056Z,1.19
2023-01-28T18:59:00.520Z,1.26
2023-01-28T19:01:29.097Z,1.26
2023-01-28T19:03:58.086Z,1.30
2023-01-28T19:06:27.490Z,1.31
2023-01-28T19:08:56.688Z,1.33
2023-01-28T19:11:25.661Z,1.26
2023-01-28T19:13:53.567Z,1.33
2023-01-28T19:16:23.773Z,1.24
2023-01-28T19:18:55.147Z,1.19
2023-01-28T19:21:24.423Z,1.21
2023-01-28T19:23:56.897Z,1.22
2023-01-28T19:26:25.237Z,1.22
2023-01-28T19:28:53.414Z,1.33
2023-01-28T19:31:24.312Z,1.33
2023-01-28T19:33:55.755Z,1.27
2023-01-28T19:36:23.987Z,1.28
2023-01-28T19:38:51.750Z,1.31
2023-01-28T19:41:19.674Z,1.32
2023-01-28T19:43:48.381Z,1.31
2023-01-28T19:46:18.520Z,1.21
2023-01-28T19:48:47.695Z,1.18
2023-01-28T19:51:17.217Z,1.23
2023-01-28T19:53:47.740Z,1.17
2023-01-28T19:56:18.438Z,1.15
2023-01-28T19:58:47.078Z,1.16
2023-01-28T20:01:16.883Z,1.20
2023-01-28T20:03:45.609Z,1.24
2023-01-28T20:06:17.470Z,1.27
2023-01-28T20:08:45.806Z,1.27
2023-01-28T20:11:15.667Z,1.29
2023-01-28T20:13:45.131Z,1.37
2023-01-28T20:16:17.763Z,1.37
2023-01-28T20:18:50.311Z,1.37
2023-01-28T20:21:20.057Z,1.31
2023-01-28T20:23:48.811Z,1.22
2023-01-28T20:26:17.360Z,1.02
2023-01-28T20:28:45.481Z,0.92
2023-01-28T20:31:13.239Z,0.91
2023-01-28T20:33:41.676Z,0.88
2023-01-28T20:36:12.501Z,0.91
2023-01-28T20:38:43.733Z,0.82
2023-01-28T20:41:13.987Z,0.85
2023-01-28T20:43:44.354Z,0.81
2023-01-28T20:46:14.845Z,0.79
2023-01-28T20:48:42.719Z,0.71
2023-01-28T20:51:12.108Z,0.69
2023-01-28T20:53:42.046Z,0.77
2023-01-28T20:56:11.226Z,0.77
2023-01-28T20:58:39.049Z,0.81
2023-01-28T21:01:06.827Z,0.86
2023-01-28T21:03:34.969Z,0.89
2023-01-28T21:06:02.912Z,0.87
2023-01-28T21:08:30.713Z,0.89
2023-01-28T21:11:02.661Z,0.73
2023-01-28T21:13:30.493Z,0.83
2023-01-28T21:15:59.321Z,0.77
2023-01-28T21:18:27.326Z,0.71
2023-01-28T21:20:56.031Z,0.63
2023-01-28T21:23:24.508Z,0.46
2023-01-28T21:25:52.731Z,0.46
2023-01-28T21:28:22.263Z,0.35
2023-01-28T21:30:50.084Z,0.54
2023-01-28T21:33:17.930Z,0.50
2023-01-28T21:35:45.698Z,0.41
2023-01-28T21:38:13.547Z,0.40
2023-01-28T21:40:41.263Z,0.31
2023-01-28T21:43:09.085Z,0.32
2023-01-28T21:45:38.130Z,0.34
2023-01-28T21:48:06.131Z,0.28
2023-01-28T21:50:54.240Z,0.38
2023-01-28T21:53:22.113Z,0.36
2023-01-28T21:55:49.770Z,0.28
2023-01-28T21:58:35.102Z,0.29
2023-01-28T22:01:10.778Z,0.23
2023-01-28T22:03:38.597Z,0.16
2023-01-28T22:06:06.984Z,0.23
2023-01-28T22:08:34.884Z,0.20
2023-01-28T22:11:03.636Z,0.07
2023-01-28T22:13:31.438Z,0.04
2023-01-28T22:15:59.301Z,0.03
2023-01-28T22:18:28.496Z,-0.02
2023-01-28T22:20:59.429Z,-0.10
2023-01-28T22:23:27.697Z,-0.07
2023-01-28T22:25:56.567Z,-0.14
2023-01-28T22:28:24.778Z,-0.13
2023-01-28T22:30:52.810Z,-0.20
2023-01-28T22:33:20.857Z,-0.12
2023-01-28T22:35:50.625Z,-0.17
2023-01-28T22:38:18.414Z,-0.13
2023-01-28T22:40:46.299Z,-0.06
2023-01-28T22:43:14.067Z,-0.05
2023-01-28T22:45:42.037Z,0.00
2023-01-28T22:48:09.791Z,0.05
2023-01-28T22:50:37.939Z,0.10
2023-01-28T22:53:07.145Z,0.09
2023-01-28T22:55:34.844Z,0.08
2023-01-28T22:58:02.947Z,0.09
2023-01-28T23:00:30.723Z,0.13
2023-01-28T23:02:58.826Z,0.12
2023-01-28T23:05:27.391Z,0.15
2023-01-28T23:08:09.899Z,0.30
2023-01-28T23:10:39.343Z,0.36
2023-01-28T23:13:07.854Z,0.38
2023-01-28T23:15:53.298Z,0.37
2023-01-28T23:18:40.563Z,0.42
2023-01-28T23:21:32.981Z,0.47
2023-01-28T23:24:18.272Z,0.40
2023-01-28T23:26:48.484Z,0.42
2023-01-28T23:29:16.302Z,0.52
2023-01-28T23:31:46.483Z,0.46
2023-01-28T23:34:14.743Z,0.57
2023-01-28T23:36:42.561Z,0.54
2023-01-28T23:39:10.440Z,0.56
2023-01-28T23:41:38.418Z,0.52
2023-01-28T23:44:07.682Z,0.47
2023-01-28T23:46:39.817Z,0.56
2023-01-28T23:49:08.212Z,0.56
2023-01-28T23:51:36.370Z,0.54
2023-01-28T23:54:04.128Z,0.55
2023-01-28T23:56:31.839Z,0.60
2023-01-28T23:58:59.646Z,0.60
